Time;durP1;ratioP1;P1;durP2;ratioP2;P2;SDS_P1;SDS_P2;PMS_P1;PMS_P2;Temp;Humidity;BMP_temperature;BMP_pressure;BME280_temperature;BME280_humidity;BME280_pressure;Samples;Min_cycle;Max_cycle;Signal;HPM_P1;HPM_P2
2021/09/02 17:11:39;;;;;;;;;;;13.10;85.70;;;;;;5062051;28;19921;-95
2021/09/02 17:14:05;;;;;;;;;;;13.10;86.90;;;;;;5028170;28;19913;-95
2021/09/02 17:16:31;;;;;;;;;;;13.20;87.80;;;;;;5035856;28;19909;-93
2021/09/02 17:18:57;;;;;;;;;;;13.30;88.20;;;;;;5034763;28;19984;-94
2021/09/02 17:21:22;;;;;;;;;;;13.30;88.40;;;;;;5019803;28;19940;-96
2021/09/02 17:23:48;;;;;;;;;;;13.30;88.50;;;;;;5033826;28;20332;-94
2021/09/02 17:26:14;;;;;;;;;;;13.30;88.70;;;;;;5035962;28;20023;-90
2021/09/02 17:28:42;;;;;;;;;;;13.40;88.60;;;;;;5041200;28;19913;-94
2021/09/02 17:31:08;;;;;;;;;;;13.40;88.50;;;;;;5035038;28;19925;-96
2021/09/02 17:33:35;;;;;;;;;;;13.40;88.40;;;;;;5086180;23;19924;-96
2021/09/02 17:36:01;;;;;;;;;;;13.40;88.30;;;;;;5134445;28;19912;-96
2021/09/02 17:38:27;;;;;;;;;;;13.40;88.20;;;;;;5133058;28;19916;-96
2021/09/02 17:40:53;;;;;;;;;;;13.40;87.90;;;;;;5128012;28;20349;-96
2021/09/02 17:43:18;;;;;;;;;;;13.40;87.70;;;;;;5129621;28;19961;-95
2021/09/02 17:45:44;;;;;;;;;;;13.40;87.50;;;;;;5117504;28;20388;-95
2021/09/02 17:48:09;;;;;;;;;;;13.40;87.30;;;;;;5077754;28;19991;-95
2021/09/02 17:50:35;;;;;;;;;;;13.40;87.20;;;;;;5085927;28;19893;-93
2021/09/02 17:53:01;;;;;;;;;;;13.40;87.10;;;;;;5104354;28;19959;-96
2021/09/02 17:55:27;;;;;;;;;;;13.40;87.00;;;;;;5078841;28;19976;-95
2021/09/02 17:57:52;;;;;;;;;;;13.40;87.00;;;;;;5076517;28;19952;-95
2021/09/02 18:00:19;;;;;;;;;;;13.40;86.90;;;;;;5091043;28;20006;-95
2021/09/02 18:02:44;;;;;;;;;;;13.40;86.60;;;;;;5099347;28;19908;-96
2021/09/02 18:05:11;;;;;;;;;;;13.40;86.40;;;;;;5132909;28;19909;-93
2021/09/02 18:07:36;;;;;;;;;;;13.40;86.30;;;;;;5130123;28;20404;-96
2021/09/02 18:10:05;;;;;;;;;;;13.30;86.20;;;;;;5093358;28;19958;-96
2021/09/02 18:12:34;;;;;;;;;;;13.30;86.00;;;;;;5090806;28;19912;-95
2021/09/02 18:15:00;;;;;;;;;;;13.30;85.80;;;;;;5078808;28;19916;-94
2021/09/02 18:17:27;;;;;;;;;;;13.30;85.50;;;;;;5075952;28;19913;-96
2021/09/02 18:19:53;;;;;;;;;;;13.30;85.40;;;;;;5102334;28;19912;-91
2021/09/02 18:22:19;;;;;;;;;;;13.30;85.60;;;;;;5057063;28;19987;-92
2021/09/02 18:24:45;;;;;;;;;;;13.30;85.50;;;;;;5073677;28;19986;-92
2021/09/02 18:27:11;;;;;;;;;;;13.30;85.60;;;;;;5077267;28;19912;-93
2021/09/02 18:29:37;;;;;;;;;;;13.30;85.30;;;;;;5076653;28;19962;-92
2021/09/02 18:32:02;;;;;;;;;;;13.30;84.80;;;;;;5102365;28;19921;-93
2021/09/02 18:34:28;;;;;;;;;;;13.30;84.40;;;;;;5072763;28;19925;-94
2021/09/02 18:36:54;;;;;;;;;;;13.40;84.20;;;;;;5079312;28;19912;-92
2021/09/02 18:39:20;;;;;;;;;;;13.30;84.10;;;;;;5076205;28;20388;-93
2021/09/02 18:41:46;;;;;;;;;;;13.40;84.00;;;;;;5075040;28;19942;-93
2021/09/02 18:44:13;;;;;;;;;;;13.40;84.00;;;;;;5075221;28;19909;-93
2021/09/02 18:46:39;;;;;;;;;;;13.30;83.90;;;;;;5074791;28;19913;-93
2021/09/02 18:49:05;;;;;;;;;;;13.40;83.80;;;;;;5074686;28;20003;-91
2021/09/02 18:51:31;;;;;;;;;;;13.30;83.50;;;;;;5073966;28;19924;-91
2021/09/02 18:53:57;;;;;;;;;;;13.40;83.30;;;;;;5075543;28;19916;-96
2021/09/02 18:56:23;;;;;;;;;;;13.30;83.20;;;;;;5074933;28;19947;-91
2021/09/02 18:58:49;;;;;;;;;;;13.30;83.20;;;;;;5076115;28;19957;-90
2021/09/02 19:01:18;;;;;;;;;;;13.30;83.10;;;;;;5070078;28;19912;-91
2021/09/02 19:03:53;;;;;;;;;;;13.30;83.00;;;;;;5060772;28;20003;-93
2021/09/02 19:06:20;;;;;;;;;;;13.30;83.10;;;;;;5061801;28;19912;-95
2021/09/02 19:08:49;;;;;;;;;;;13.30;83.10;;;;;;5074973;28;20008;-92
2021/09/02 19:11:15;;;;;;;;;;;13.30;82.90;;;;;;5074393;28;19939;-93
2021/09/02 19:13:42;;;;;;;;;;;13.30;82.90;;;;;;5074190;28;20361;-88
2021/09/02 19:16:07;;;;;;;;;;;13.30;82.80;;;;;;5073733;28;19995;-89
2021/09/02 19:18:33;;;;;;;;;;;13.30;82.60;;;;;;5075092;28;19943;-95
2021/09/02 19:20:59;;;;;;;;;;;13.30;82.60;;;;;;5085760;28;19981;-96
2021/09/02 19:23:24;;;;;;;;;;;13.30;82.60;;;;;;5082223;28;20372;-93
2021/09/02 19:25:52;;;;;;;;;;;13.30;82.70;;;;;;5081297;28;19916;-96
2021/09/02 19:28:20;;;;;;;;;;;13.30;82.70;;;;;;5088482;28;20356;-95
2021/09/02 19:33:23;;;;;;;;;;;13.30;82.80;;;;;;5258319;22;19931;-96
2021/09/02 19:35:50;;;;;;;;;;;13.30;82.90;;;;;;5108616;28;19955;-96
2021/09/02 19:38:16;;;;;;;;;;;13.30;83.00;;;;;;5197181;22;19908;-96
2021/09/02 19:40:42;;;;;;;;;;;13.30;82.90;;;;;;5108014;28;19906;-96
